sensor_id;sensor_type;location;lat;lon;timestamp;P1;durP1;ratioP1;P2;durP2;ratioP2
49061;SDS011;34873;49.142;9.118;2022-07-23T00:00:11;5.60;;;5.03;;
49061;SDS011;34873;49.142;9.118;2022-07-23T00:02:39;5.28;;;4.63;;
49061;SDS011;34873;49.142;9.118;2022-07-23T00:05:07;5.55;;;5.00;;
49061;SDS011;34873;49.142;9.118;2022-07-23T00:07:33;5.53;;;4.82;;
49061;SDS011;34873;49.142;9.118;2022-07-23T00:09:59;5.70;;;5.10;;
49061;SDS011;34873;49.142;9.118;2022-07-23T00:12:24;5.28;;;4.75;;
49061;SDS011;34873;49.142;9.118;2022-07-23T00:14:55;5.82;;;5.25;;
49061;SDS011;34873;49.142;9.118;2022-07-23T00:17:20;5.25;;;4.70;;
49061;SDS011;34873;49.142;9.118;2022-07-23T00:19:46;5.75;;;5.07;;
49061;SDS011;34873;49.142;9.118;2022-07-23T00:22:13;5.97;;;5.47;;
49061;SDS011;34873;49.142;9.118;2022-07-23T00:24:39;6.05;;;5.40;;
49061;SDS011;34873;49.142;9.118;2022-07-23T00:27:09;6.25;;;5.30;;
49061;SDS011;34873;49.142;9.118;2022-07-23T00:29:37;6.93;;;5.15;;
49061;SDS011;34873;49.142;9.118;2022-07-23T00:32:04;5.30;;;4.80;;
49061;SDS011;34873;49.142;9.118;2022-07-23T00:34:30;5.95;;;4.70;;
49061;SDS011;34873;49.142;9.118;2022-07-23T00:37:00;5.72;;;4.82;;
49061;SDS011;34873;49.142;9.118;2022-07-23T00:39:33;4.97;;;4.40;;
49061;SDS011;34873;49.142;9.118;2022-07-23T00:41:58;5.82;;;4.95;;
49061;SDS011;34873;49.142;9.118;2022-07-23T00:44:24;5.72;;;5.10;;
49061;SDS011;34873;49.142;9.118;2022-07-23T00:46:54;5.28;;;4.78;;
49061;SDS011;34873;49.142;9.118;2022-07-23T00:49:21;4.50;;;4.10;;
49061;SDS011;34873;49.142;9.118;2022-07-23T00:51:48;5.45;;;4.38;;
49061;SDS011;34873;49.142;9.118;2022-07-23T00:54:14;4.70;;;4.30;;
49061;SDS011;34873;49.142;9.118;2022-07-23T00:56:41;5.07;;;4.57;;
49061;SDS011;34873;49.142;9.118;2022-07-23T00:59:10;5.00;;;4.60;;
49061;SDS011;34873;49.142;9.118;2022-07-23T01:01:35;4.95;;;4.55;;
49061;SDS011;34873;49.142;9.118;2022-07-23T01:04:03;5.70;;;4.40;;
49061;SDS011;34873;49.142;9.118;2022-07-23T01:06:30;4.75;;;4.30;;
49061;SDS011;34873;49.142;9.118;2022-07-23T01:09:00;5.80;;;5.30;;
49061;SDS011;34873;49.142;9.118;2022-07-23T01:11:25;5.70;;;5.05;;
49061;SDS011;34873;49.142;9.118;2022-07-23T01:13:51;4.78;;;4.38;;
49061;SDS011;34873;49.142;9.118;2022-07-23T01:16:16;5.35;;;4.75;;
49061;SDS011;34873;49.142;9.118;2022-07-23T01:18:42;7.13;;;4.43;;
49061;SDS011;34873;49.142;9.118;2022-07-23T01:21:08;5.40;;;4.90;;
49061;SDS011;34873;49.142;9.118;2022-07-23T01:23:38;5.78;;;5.18;;
49061;SDS011;34873;49.142;9.118;2022-07-23T01:26:06;4.75;;;4.35;;
49061;SDS011;34873;49.142;9.118;2022-07-23T01:28:34;5.15;;;4.50;;
49061;SDS011;34873;49.142;9.118;2022-07-23T01:30:59;5.82;;;4.90;;
49061;SDS011;34873;49.142;9.118;2022-07-23T01:33:29;5.03;;;4.53;;
49061;SDS011;34873;49.142;9.118;2022-07-23T01:35:58;4.53;;;4.13;;
49061;SDS011;34873;49.142;9.118;2022-07-23T01:38:25;4.90;;;4.50;;
49061;SDS011;34873;49.142;9.118;2022-07-23T01:40:50;5.30;;;4.80;;
49061;SDS011;34873;49.142;9.118;2022-07-23T01:43:16;4.78;;;4.38;;
49061;SDS011;34873;49.142;9.118;2022-07-23T01:45:44;4.55;;;4.15;;
49061;SDS011;34873;49.142;9.118;2022-07-23T01:48:10;4.90;;;4.50;;
49061;SDS011;34873;49.142;9.118;2022-07-23T01:50:46;5.68;;;4.75;;
49061;SDS011;34873;49.142;9.118;2022-07-23T01:53:25;4.97;;;4.47;;
49061;SDS011;34873;49.142;9.118;2022-07-23T01:55:53;4.65;;;4.10;;
49061;SDS011;34873;49.142;9.118;2022-07-23T01:58:18;4.85;;;4.45;;
49061;SDS011;34873;49.142;9.118;2022-07-23T02:00:46;5.20;;;4.70;;
49061;SDS011;34873;49.142;9.118;2022-07-23T02:03:14;4.70;;;4.10;;
49061;SDS011;34873;49.142;9.118;2022-07-23T02:05:39;4.70;;;4.30;;
49061;SDS011;34873;49.142;9.118;2022-07-23T02:08:07;4.90;;;4.43;;
49061;SDS011;34873;49.142;9.118;2022-07-23T02:10:35;4.82;;;4.40;;
49061;SDS011;34873;49.142;9.118;2022-07-23T02:13:02;4.90;;;4.40;;
49061;SDS011;34873;49.142;9.118;2022-07-23T02:15:28;4.85;;;4.35;;
49061;SDS011;34873;49.142;9.118;2022-07-23T02:17:54;5.50;;;4.35;;
49061;SDS011;34873;49.142;9.118;2022-07-23T02:20:21;5.63;;;5.03;;
49061;SDS011;34873;49.142;9.118;2022-07-23T02:22:46;6.38;;;4.70;;
49061;SDS011;34873;49.142;9.118;2022-07-23T02:25:19;6.10;;;4.40;;
49061;SDS011;34873;49.142;9.118;2022-07-23T02:27:44;4.55;;;4.15;;
49061;SDS011;34873;49.142;9.118;2022-07-23T02:30:10;4.80;;;4.40;;
49061;SDS011;34873;49.142;9.118;2022-07-23T02:32:36;5.18;;;4.57;;
49061;SDS011;34873;49.142;9.118;2022-07-23T02:35:02;4.70;;;4.25;;
49061;SDS011;34873;49.142;9.118;2022-07-23T02:37:29;4.63;;;4.22;;
49061;SDS011;34873;49.142;9.118;2022-07-23T02:39:57;5.60;;;5.10;;
49061;SDS011;34873;49.142;9.118;2022-07-23T02:42:23;4.60;;;4.20;;
49061;SDS011;34873;49.142;9.118;2022-07-23T02:44:49;5.55;;;5.05;;
49061;SDS011;34873;49.142;9.118;2022-07-23T02:47:18;4.53;;;4.13;;
49061;SDS011;34873;49.142;9.118;2022-07-23T02:49:44;4.80;;;4.35;;
49061;SDS011;34873;49.142;9.118;2022-07-23T02:52:12;4.35;;;3.97;;
49061;SDS011;34873;49.142;9.118;2022-07-23T02:54:41;5.03;;;4.60;;
49061;SDS011;34873;49.142;9.118;2022-07-23T02:57:09;4.82;;;4.43;;
49061;SDS011;34873;49.142;9.118;2022-07-23T02:59:37;4.90;;;4.40;;
49061;SDS011;34873;49.142;9.118;2022-07-23T03:02:05;4.90;;;4.47;;
49061;SDS011;34873;49.142;9.118;2022-07-23T03:04:30;4.80;;;4.40;;
49061;SDS011;34873;49.142;9.118;2022-07-23T03:06:58;4.93;;;4.40;;
49061;SDS011;34873;49.142;9.118;2022-07-23T03:09:24;4.95;;;4.22;;
49061;SDS011;34873;49.142;9.118;2022-07-23T03:11:51;4.50;;;4.10;;
49061;SDS011;34873;49.142;9.118;2022-07-23T03:14:18;4.97;;;4.47;;
49061;SDS011;34873;49.142;9.118;2022-07-23T03:16:43;5.43;;;4.93;;
49061;SDS011;34873;49.142;9.118;2022-07-23T03:19:09;4.95;;;4.50;;
49061;SDS011;34873;49.142;9.118;2022-07-23T03:21:37;4.45;;;4.05;;
49061;SDS011;34873;49.142;9.118;2022-07-23T03:24:07;4.20;;;3.88;;
49061;SDS011;34873;49.142;9.118;2022-07-23T03:26:35;5.72;;;4.22;;
49061;SDS011;34873;49.142;9.118;2022-07-23T03:29:03;4.28;;;3.88;;
49061;SDS011;34873;49.142;9.118;2022-07-23T03:31:32;4.60;;;4.20;;
49061;SDS011;34873;49.142;9.118;2022-07-23T03:33:57;5.07;;;4.57;;
49061;SDS011;34873;49.142;9.118;2022-07-23T03:36:23;4.32;;;3.92;;
49061;SDS011;34873;49.142;9.118;2022-07-23T03:38:50;4.47;;;4.07;;
49061;SDS011;34873;49.142;9.118;2022-07-23T03:41:18;5.68;;;4.50;;
49061;SDS011;34873;49.142;9.118;2022-07-23T03:43:44;5.35;;;4.85;;
49061;SDS011;34873;49.142;9.118;2022-07-23T03:46:11;4.80;;;4.20;;
49061;SDS011;34873;49.142;9.118;2022-07-23T03:48:36;4.97;;;4.47;;
49061;SDS011;34873;49.142;9.118;2022-07-23T03:51:02;5.82;;;4.65;;
49061;SDS011;34873;49.142;9.118;2022-07-23T03:53:27;4.55;;;4.15;;
49061;SDS011;34873;49.142;9.118;2022-07-23T03:55:53;4.78;;;4.40;;
49061;SDS011;34873;49.142;9.118;2022-07-23T03:58:19;4.30;;;4.00;;
49061;SDS011;34873;49.142;9.118;2022-07-23T04:00:46;5.88;;;4.65;;
49061;SDS011;34873;49.142;9.118;2022-07-23T04:03:12;4.95;;;4.53;;
49061;SDS011;34873;49.142;9.118;2022-07-23T04:05:42;4.40;;;4.00;;
49061;SDS011;34873;49.142;9.118;2022-07-23T04:08:11;6.22;;;4.07;;
49061;SDS011;34873;49.142;9.118;2022-07-23T04:10:41;4.65;;;4.25;;
49061;SDS011;34873;49.142;9.118;2022-07-23T04:13:07;5.00;;;4.50;;
49061;SDS011;34873;49.142;9.118;2022-07-23T04:15:35;4.88;;;4.38;;
49061;SDS011;34873;49.142;9.118;2022-07-23T04:18:03;4.78;;;3.97;;
49061;SDS011;34873;49.142;9.118;2022-07-23T04:20:40;4.80;;;4.40;;
49061;SDS011;34873;49.142;9.118;2022-07-23T04:23:08;4.40;;;4.05;;
49061;SDS011;34873;49.142;9.118;2022-07-23T04:25:40;4.50;;;4.10;;
49061;SDS011;34873;49.142;9.118;2022-07-23T04:28:05;4.90;;;4.20;;
49061;SDS011;34873;49.142;9.118;2022-07-23T04:30:33;4.72;;;4.32;;
49061;SDS011;34873;49.142;9.118;2022-07-23T04:32:59;4.38;;;3.97;;
49061;SDS011;34873;49.142;9.118;2022-07-23T04:35:35;4.50;;;4.10;;
49061;SDS011;34873;49.142;9.118;2022-07-23T04:38:10;4.47;;;4.07;;
49061;SDS011;34873;49.142;9.118;2022-07-23T04:40:36;4.18;;;3.58;;
49061;SDS011;34873;49.142;9.118;2022-07-23T04:43:01;4.78;;;4.22;;
49061;SDS011;34873;49.142;9.118;2022-07-23T04:45:31;4.88;;;4.32;;
49061;SDS011;34873;49.142;9.118;2022-07-23T04:47:59;3.83;;;3.53;;
49061;SDS011;34873;49.142;9.118;2022-07-23T04:50:24;4.57;;;3.80;;
49061;SDS011;34873;49.142;9.118;2022-07-23T04:52:55;4.65;;;4.25;;
49061;SDS011;34873;49.142;9.118;2022-07-23T04:55:22;4.10;;;3.80;;
49061;SDS011;34873;49.142;9.118;2022-07-23T04:57:48;4.63;;;4.22;;
49061;SDS011;34873;49.142;9.118;2022-07-23T05:00:13;4.75;;;4.22;;
49061;SDS011;34873;49.142;9.118;2022-07-23T05:02:39;4.43;;;4.05;;
49061;SDS011;34873;49.142;9.118;2022-07-23T05:05:07;4.43;;;4.03;;
49061;SDS011;34873;49.142;9.118;2022-07-23T05:07:35;6.38;;;4.25;;
49061;SDS011;34873;49.142;9.118;2022-07-23T05:10:01;4.30;;;4.00;;
49061;SDS011;34873;49.142;9.118;2022-07-23T05:12:28;4.82;;;4.20;;
49061;SDS011;34873;49.142;9.118;2022-07-23T05:14:53;4.50;;;4.10;;
49061;SDS011;34873;49.142;9.118;2022-07-23T05:17:20;4.60;;;4.20;;
49061;SDS011;34873;49.142;9.118;2022-07-23T05:19:45;3.97;;;3.63;;
49061;SDS011;34873;49.142;9.118;2022-07-23T05:22:11;4.32;;;3.92;;
49061;SDS011;34873;49.142;9.118;2022-07-23T05:24:37;4.55;;;3.90;;
49061;SDS011;34873;49.142;9.118;2022-07-23T05:27:03;3.92;;;3.63;;
49061;SDS011;34873;49.142;9.118;2022-07-23T05:29:28;4.35;;;4.05;;
49061;SDS011;34873;49.142;9.118;2022-07-23T05:31:58;4.70;;;4.15;;
49061;SDS011;34873;49.142;9.118;2022-07-23T05:34:24;5.25;;;3.90;;
49061;SDS011;34873;49.142;9.118;2022-07-23T05:36:50;4.63;;;4.22;;
49061;SDS011;34873;49.142;9.118;2022-07-23T05:39:15;3.97;;;3.67;;
49061;SDS011;34873;49.142;9.118;2022-07-23T05:41:45;4.50;;;4.10;;
49061;SDS011;34873;49.142;9.118;2022-07-23T05:44:10;4.47;;;4.07;;
49061;SDS011;34873;49.142;9.118;2022-07-23T05:46:38;4.50;;;4.10;;
49061;SDS011;34873;49.142;9.118;2022-07-23T05:49:07;3.92;;;3.60;;
49061;SDS011;34873;49.142;9.118;2022-07-23T05:52:12;4.55;;;4.15;;
49061;SDS011;34873;49.142;9.118;2022-07-23T05:55:05;4.40;;;4.00;;
49061;SDS011;34873;49.142;9.118;2022-07-23T05:57:33;4.55;;;4.15;;
49061;SDS011;34873;49.142;9.118;2022-07-23T05:59:59;3.72;;;3.45;;
49061;SDS011;34873;49.142;9.118;2022-07-23T06:02:25;4.50;;;4.20;;
49061;SDS011;34873;49.142;9.118;2022-07-23T06:04:53;4.35;;;4.05;;
49061;SDS011;34873;49.142;9.118;2022-07-23T06:07:28;4.20;;;3.90;;
49061;SDS011;34873;49.142;9.118;2022-07-23T06:09:54;5.32;;;3.80;;
49061;SDS011;34873;49.142;9.118;2022-07-23T06:12:20;4.13;;;3.38;;
49061;SDS011;34873;49.142;9.118;2022-07-23T06:14:48;4.35;;;3.95;;
49061;SDS011;34873;49.142;9.118;2022-07-23T06:17:15;4.25;;;3.95;;
49061;SDS011;34873;49.142;9.118;2022-07-23T06:19:43;3.85;;;3.55;;
49061;SDS011;34873;49.142;9.118;2022-07-23T06:22:08;4.03;;;3.72;;
49061;SDS011;34873;49.142;9.118;2022-07-23T06:24:35;4.30;;;3.97;;
49061;SDS011;34873;49.142;9.118;2022-07-23T06:27:00;4.43;;;3.80;;
49061;SDS011;34873;49.142;9.118;2022-07-23T06:29:29;4.03;;;3.72;;
49061;SDS011;34873;49.142;9.118;2022-07-23T06:31:54;4.43;;;4.03;;
49061;SDS011;34873;49.142;9.118;2022-07-23T06:34:20;4.13;;;3.72;;
49061;SDS011;34873;49.142;9.118;2022-07-23T06:36:45;4.30;;;3.90;;
49061;SDS011;34873;49.142;9.118;2022-07-23T06:39:13;4.10;;;3.70;;
49061;SDS011;34873;49.142;9.118;2022-07-23T06:41:42;4.20;;;3.90;;
49061;SDS011;34873;49.142;9.118;2022-07-23T06:44:10;4.53;;;4.13;;
49061;SDS011;34873;49.142;9.118;2022-07-23T06:46:35;4.15;;;3.50;;
49061;SDS011;34873;49.142;9.118;2022-07-23T06:49:03;3.90;;;3.60;;
49061;SDS011;34873;49.142;9.118;2022-07-23T06:51:29;4.10;;;3.80;;
49061;SDS011;34873;49.142;9.118;2022-07-23T06:53:57;3.70;;;3.40;;
49061;SDS011;34873;49.142;9.118;2022-07-23T06:56:25;4.80;;;4.40;;
49061;SDS011;34873;49.142;9.118;2022-07-23T06:58:50;3.88;;;3.58;;
49061;SDS011;34873;49.142;9.118;2022-07-23T07:01:18;3.58;;;3.38;;
49061;SDS011;34873;49.142;9.118;2022-07-23T07:03:43;3.88;;;3.58;;
49061;SDS011;34873;49.142;9.118;2022-07-23T07:06:09;4.45;;;4.05;;
49061;SDS011;34873;49.142;9.118;2022-07-23T07:08:35;3.92;;;3.63;;
49061;SDS011;34873;49.142;9.118;2022-07-23T07:11:00;3.85;;;3.55;;
49061;SDS011;34873;49.142;9.118;2022-07-23T07:13:28;3.88;;;3.58;;
49061;SDS011;34873;49.142;9.118;2022-07-23T07:15:56;4.45;;;4.05;;
49061;SDS011;34873;49.142;9.118;2022-07-23T07:18:22;3.78;;;3.47;;
49061;SDS011;34873;49.142;9.118;2022-07-23T07:20:47;4.22;;;3.75;;
49061;SDS011;34873;49.142;9.118;2022-07-23T07:23:13;3.72;;;3.45;;
49061;SDS011;34873;49.142;9.118;2022-07-23T07:25:39;4.10;;;3.63;;
49061;SDS011;34873;49.142;9.118;2022-07-23T07:28:05;3.95;;;3.65;;
49061;SDS011;34873;49.142;9.118;2022-07-23T07:30:30;4.13;;;3.83;;
49061;SDS011;34873;49.142;9.118;2022-07-23T07:32:58;3.92;;;3.63;;
49061;SDS011;34873;49.142;9.118;2022-07-23T07:35:23;4.15;;;3.72;;
49061;SDS011;34873;49.142;9.118;2022-07-23T07:37:51;4.38;;;3.97;;
49061;SDS011;34873;49.142;9.118;2022-07-23T07:40:17;4.65;;;3.67;;
49061;SDS011;34873;49.142;9.118;2022-07-23T07:42:50;4.60;;;4.15;;
49061;SDS011;34873;49.142;9.118;2022-07-23T07:45:19;3.80;;;3.50;;
49061;SDS011;34873;49.142;9.118;2022-07-23T07:47:49;4.13;;;3.72;;
49061;SDS011;34873;49.142;9.118;2022-07-23T07:50:17;5.38;;;3.85;;
49061;SDS011;34873;49.142;9.118;2022-07-23T07:52:42;4.47;;;3.90;;
49061;SDS011;34873;49.142;9.118;2022-07-23T07:55:08;4.03;;;3.65;;
49061;SDS011;34873;49.142;9.118;2022-07-23T07:57:34;4.32;;;3.95;;
49061;SDS011;34873;49.142;9.118;2022-07-23T08:00:00;4.57;;;4.18;;
49061;SDS011;34873;49.142;9.118;2022-07-23T08:02:28;5.10;;;3.83;;
49061;SDS011;34873;49.142;9.118;2022-07-23T08:04:54;4.10;;;3.70;;
49061;SDS011;34873;49.142;9.118;2022-07-23T08:07:22;3.85;;;3.55;;
49061;SDS011;34873;49.142;9.118;2022-07-23T08:09:47;3.83;;;3.53;;
49061;SDS011;34873;49.142;9.118;2022-07-23T08:12:13;3.55;;;3.35;;
49061;SDS011;34873;49.142;9.118;2022-07-23T08:14:38;3.90;;;3.60;;
49061;SDS011;34873;49.142;9.118;2022-07-23T08:17:06;4.18;;;3.85;;
49061;SDS011;34873;49.142;9.118;2022-07-23T08:19:31;4.47;;;4.07;;
49061;SDS011;34873;49.142;9.118;2022-07-23T08:22:01;3.97;;;3.67;;
49061;SDS011;34873;49.142;9.118;2022-07-23T08:24:27;4.32;;;3.90;;
49061;SDS011;34873;49.142;9.118;2022-07-23T08:26:55;4.05;;;3.75;;
49061;SDS011;34873;49.142;9.118;2022-07-23T08:29:20;4.13;;;3.80;;
49061;SDS011;34873;49.142;9.118;2022-07-23T08:31:48;4.05;;;3.75;;
49061;SDS011;34873;49.142;9.118;2022-07-23T08:34:13;4.13;;;3.70;;
49061;SDS011;34873;49.142;9.118;2022-07-23T08:36:41;7.50;;;3.72;;
49061;SDS011;34873;49.142;9.118;2022-07-23T08:39:06;4.05;;;3.72;;
49061;SDS011;34873;49.142;9.118;2022-07-23T08:41:32;6.65;;;5.43;;
49061;SDS011;34873;49.142;9.118;2022-07-23T08:43:58;6.43;;;5.68;;
49061;SDS011;34873;49.142;9.118;2022-07-23T08:46:26;8.63;;;6.78;;
49061;SDS011;34873;49.142;9.118;2022-07-23T08:48:54;12.45;;;6.97;;
49061;SDS011;34873;49.142;9.118;2022-07-23T08:51:20;10.60;;;7.05;;
49061;SDS011;34873;49.142;9.118;2022-07-23T08:53:48;10.98;;;7.07;;
49061;SDS011;34873;49.142;9.118;2022-07-23T08:56:18;7.50;;;6.72;;
49061;SDS011;34873;49.142;9.118;2022-07-23T08:58:44;9.05;;;7.10;;
49061;SDS011;34873;49.142;9.118;2022-07-23T09:01:09;8.95;;;7.10;;
49061;SDS011;34873;49.142;9.118;2022-07-23T09:03:37;9.35;;;7.78;;
49061;SDS011;34873;49.142;9.118;2022-07-23T09:06:04;9.55;;;6.82;;
49061;SDS011;34873;49.142;9.118;2022-07-23T09:11:08;9.98;;;6.22;;
49061;SDS011;34873;49.142;9.118;2022-07-23T09:16:26;8.90;;;7.00;;
49061;SDS011;34873;49.142;9.118;2022-07-23T09:21:24;8.90;;;7.30;;
49061;SDS011;34873;49.142;9.118;2022-07-23T09:23:54;9.13;;;6.28;;
49061;SDS011;34873;49.142;9.118;2022-07-23T09:29:04;182.90;;;127.03;;
49061;SDS011;34873;49.142;9.118;2022-07-23T09:36:53;86.38;;;62.10;;
49061;SDS011;34873;49.142;9.118;2022-07-23T09:41:53;83.78;;;60.28;;
49061;SDS011;34873;49.142;9.118;2022-07-23T09:44:21;80.45;;;59.28;;
49061;SDS011;34873;49.142;9.118;2022-07-23T09:46:48;78.90;;;55.28;;
49061;SDS011;34873;49.142;9.118;2022-07-23T09:49:19;74.60;;;54.30;;
49061;SDS011;34873;49.142;9.118;2022-07-23T09:51:55;76.75;;;54.22;;
49061;SDS011;34873;49.142;9.118;2022-07-23T09:54:39;75.60;;;53.85;;
49061;SDS011;34873;49.142;9.118;2022-07-23T09:57:12;66.97;;;48.67;;
49061;SDS011;34873;49.142;9.118;2022-07-23T09:59:43;62.50;;;45.35;;
49061;SDS011;34873;49.142;9.118;2022-07-23T10:02:13;60.92;;;44.13;;
49061;SDS011;34873;49.142;9.118;2022-07-23T10:05:15;58.22;;;42.42;;
49061;SDS011;34873;49.142;9.118;2022-07-23T10:08:01;60.45;;;43.88;;
49061;SDS011;34873;49.142;9.118;2022-07-23T10:10:48;56.70;;;40.15;;
49061;SDS011;34873;49.142;9.118;2022-07-23T10:13:33;43.50;;;31.38;;
49061;SDS011;34873;49.142;9.118;2022-07-23T10:16:01;38.88;;;28.30;;
49061;SDS011;34873;49.142;9.118;2022-07-23T10:18:29;44.55;;;30.73;;
49061;SDS011;34873;49.142;9.118;2022-07-23T10:20:58;40.55;;;27.58;;
49061;SDS011;34873;49.142;9.118;2022-07-23T10:23:28;39.92;;;26.17;;
49061;SDS011;34873;49.142;9.118;2022-07-23T10:35:07;28.58;;;18.55;;
49061;SDS011;34873;49.142;9.118;2022-07-23T10:37:16;26.88;;;18.80;;
49061;SDS011;34873;49.142;9.118;2022-07-23T10:42:48;21.55;;;17.05;;
49061;SDS011;34873;49.142;9.118;2022-07-23T10:47:55;23.90;;;15.00;;
49061;SDS011;34873;49.142;9.118;2022-07-23T10:50:37;20.02;;;15.35;;
49061;SDS011;34873;49.142;9.118;2022-07-23T10:57:59;20.05;;;14.50;;
49061;SDS011;34873;49.142;9.118;2022-07-23T11:00:28;21.45;;;13.80;;
49061;SDS011;34873;49.142;9.118;2022-07-23T11:02:56;17.67;;;13.77;;
49061;SDS011;34873;49.142;9.118;2022-07-23T11:05:43;18.75;;;13.20;;
49061;SDS011;34873;49.142;9.118;2022-07-23T11:08:15;17.20;;;12.70;;
49061;SDS011;34873;49.142;9.118;2022-07-23T11:13:27;16.15;;;11.98;;
49061;SDS011;34873;49.142;9.118;2022-07-23T11:31:52;14.50;;;9.85;;
49061;SDS011;34873;49.142;9.118;2022-07-23T11:34:29;11.27;;;9.80;;
49061;SDS011;34873;49.142;9.118;2022-07-23T11:37:05;12.75;;;9.23;;
49061;SDS011;34873;49.142;9.118;2022-07-23T11:39:32;11.15;;;9.07;;
49061;SDS011;34873;49.142;9.118;2022-07-23T11:42:02;10.27;;;8.13;;
49061;SDS011;34873;49.142;9.118;2022-07-23T11:44:37;11.63;;;9.07;;
49061;SDS011;34873;49.142;9.118;2022-07-23T11:47:04;10.27;;;8.40;;
49061;SDS011;34873;49.142;9.118;2022-07-23T11:49:33;10.63;;;8.88;;
49061;SDS011;34873;49.142;9.118;2022-07-23T11:52:03;8.77;;;7.80;;
49061;SDS011;34873;49.142;9.118;2022-07-23T11:54:31;9.70;;;7.82;;
49061;SDS011;34873;49.142;9.118;2022-07-23T11:57:00;8.90;;;8.00;;
49061;SDS011;34873;49.142;9.118;2022-07-23T11:59:27;8.88;;;7.85;;
49061;SDS011;34873;49.142;9.118;2022-07-23T12:02:01;8.03;;;7.23;;
49061;SDS011;34873;49.142;9.118;2022-07-23T12:07:08;8.50;;;7.50;;
49061;SDS011;34873;49.142;9.118;2022-07-23T12:09:51;10.73;;;7.07;;
49061;SDS011;34873;49.142;9.118;2022-07-23T12:12:16;8.23;;;7.00;;
49061;SDS011;34873;49.142;9.118;2022-07-23T12:14:52;11.27;;;7.22;;
49061;SDS011;34873;49.142;9.118;2022-07-23T12:17:18;9.23;;;6.45;;
49061;SDS011;34873;49.142;9.118;2022-07-23T12:19:43;15.43;;;13.63;;
49061;SDS011;34873;49.142;9.118;2022-07-23T12:22:09;100.90;;;75.05;;
49061;SDS011;34873;49.142;9.118;2022-07-23T12:27:23;54.85;;;40.90;;
49061;SDS011;34873;49.142;9.118;2022-07-23T12:29:49;54.03;;;41.10;;
49061;SDS011;34873;49.142;9.118;2022-07-23T12:35:00;51.83;;;39.05;;
49061;SDS011;34873;49.142;9.118;2022-07-23T12:37:41;47.55;;;37.00;;
49061;SDS011;34873;49.142;9.118;2022-07-23T12:42:50;48.58;;;35.55;;
49061;SDS011;34873;49.142;9.118;2022-07-23T12:45:25;43.20;;;34.25;;
49061;SDS011;34873;49.142;9.118;2022-07-23T12:55:33;41.22;;;32.67;;
49061;SDS011;34873;49.142;9.118;2022-07-23T12:58:09;37.47;;;30.00;;
49061;SDS011;34873;49.142;9.118;2022-07-23T13:03:21;32.73;;;25.93;;
49061;SDS011;34873;49.142;9.118;2022-07-23T13:05:49;37.08;;;25.80;;
49061;SDS011;34873;49.142;9.118;2022-07-23T13:08:14;27.85;;;22.42;;
49061;SDS011;34873;49.142;9.118;2022-07-23T13:10:40;30.30;;;22.92;;
49061;SDS011;34873;49.142;9.118;2022-07-23T13:13:10;27.70;;;22.05;;
49061;SDS011;34873;49.142;9.118;2022-07-23T13:15:38;26.95;;;21.15;;
49061;SDS011;34873;49.142;9.118;2022-07-23T13:18:04;26.35;;;20.25;;
49061;SDS011;34873;49.142;9.118;2022-07-23T13:20:34;23.55;;;19.67;;
49061;SDS011;34873;49.142;9.118;2022-07-23T13:23:04;23.52;;;18.73;;
49061;SDS011;34873;49.142;9.118;2022-07-23T13:25:32;22.02;;;18.08;;
49061;SDS011;34873;49.142;9.118;2022-07-23T13:28:00;21.65;;;17.77;;
49061;SDS011;34873;49.142;9.118;2022-07-23T13:30:26;21.02;;;16.77;;
49061;SDS011;34873;49.142;9.118;2022-07-23T13:32:52;22.23;;;16.85;;
49061;SDS011;34873;49.142;9.118;2022-07-23T13:35:20;19.73;;;16.25;;
49061;SDS011;34873;49.142;9.118;2022-07-23T13:37:45;19.27;;;15.60;;
49061;SDS011;34873;49.142;9.118;2022-07-23T13:40:13;18.63;;;15.57;;
49061;SDS011;34873;49.142;9.118;2022-07-23T13:42:41;18.30;;;15.85;;
49061;SDS011;34873;49.142;9.118;2022-07-23T13:45:09;17.02;;;14.30;;
49061;SDS011;34873;49.142;9.118;2022-07-23T13:47:34;16.40;;;13.55;;
49061;SDS011;34873;49.142;9.118;2022-07-23T13:50:02;17.60;;;13.60;;
49061;SDS011;34873;49.142;9.118;2022-07-23T13:52:30;16.23;;;13.75;;
49061;SDS011;34873;49.142;9.118;2022-07-23T13:54:59;18.42;;;13.55;;
49061;SDS011;34873;49.142;9.118;2022-07-23T13:57:26;15.68;;;12.10;;
49061;SDS011;34873;49.142;9.118;2022-07-23T13:59:57;13.68;;;12.25;;
49061;SDS011;34873;49.142;9.118;2022-07-23T14:02:23;14.52;;;12.10;;
49061;SDS011;34873;49.142;9.118;2022-07-23T14:04:53;13.68;;;11.60;;
49061;SDS011;34873;49.142;9.118;2022-07-23T14:07:19;14.07;;;11.27;;
49061;SDS011;34873;49.142;9.118;2022-07-23T14:09:47;11.38;;;10.23;;
49061;SDS011;34873;49.142;9.118;2022-07-23T14:12:15;12.32;;;11.02;;
49061;SDS011;34873;49.142;9.118;2022-07-23T14:14:40;15.30;;;10.57;;
49061;SDS011;34873;49.142;9.118;2022-07-23T14:17:07;11.52;;;10.15;;
49061;SDS011;34873;49.142;9.118;2022-07-23T14:19:34;10.98;;;9.70;;
49061;SDS011;34873;49.142;9.118;2022-07-23T14:22:00;10.93;;;9.82;;
49061;SDS011;34873;49.142;9.118;2022-07-23T14:24:30;12.95;;;9.73;;
49061;SDS011;34873;49.142;9.118;2022-07-23T14:26:55;10.40;;;9.27;;
49061;SDS011;34873;49.142;9.118;2022-07-23T14:29:26;10.60;;;9.13;;
49061;SDS011;34873;49.142;9.118;2022-07-23T14:31:52;12.50;;;9.63;;
49061;SDS011;34873;49.142;9.118;2022-07-23T14:34:17;11.00;;;8.65;;
49061;SDS011;34873;49.142;9.118;2022-07-23T14:36:43;10.60;;;8.80;;
49061;SDS011;34873;49.142;9.118;2022-07-23T14:39:13;9.15;;;8.10;;
49061;SDS011;34873;49.142;9.118;2022-07-23T14:41:41;9.93;;;8.93;;
49061;SDS011;34873;49.142;9.118;2022-07-23T14:44:08;8.55;;;7.72;;
49061;SDS011;34873;49.142;9.118;2022-07-23T14:46:38;10.20;;;8.65;;
49061;SDS011;34873;49.142;9.118;2022-07-23T14:49:09;9.45;;;8.20;;
49061;SDS011;34873;49.142;9.118;2022-07-23T14:51:34;9.73;;;8.15;;
49061;SDS011;34873;49.142;9.118;2022-07-23T14:54:04;8.63;;;7.75;;
49061;SDS011;34873;49.142;9.118;2022-07-23T14:56:29;11.90;;;8.27;;
49061;SDS011;34873;49.142;9.118;2022-07-23T14:58:55;9.90;;;7.82;;
49061;SDS011;34873;49.142;9.118;2022-07-23T15:01:23;8.48;;;7.00;;
49061;SDS011;34873;49.142;9.118;2022-07-23T15:03:48;8.13;;;7.30;;
49061;SDS011;34873;49.142;9.118;2022-07-23T15:06:15;11.02;;;7.50;;
49061;SDS011;34873;49.142;9.118;2022-07-23T15:08:41;8.40;;;7.50;;
49061;SDS011;34873;49.142;9.118;2022-07-23T15:11:06;10.65;;;7.63;;
49061;SDS011;34873;49.142;9.118;2022-07-23T15:13:36;7.75;;;7.00;;
49061;SDS011;34873;49.142;9.118;2022-07-23T15:16:02;8.45;;;7.55;;
49061;SDS011;34873;49.142;9.118;2022-07-23T15:18:31;8.45;;;7.55;;
49061;SDS011;34873;49.142;9.118;2022-07-23T15:20:59;9.50;;;7.88;;
49061;SDS011;34873;49.142;9.118;2022-07-23T15:23:26;8.65;;;7.05;;
49061;SDS011;34873;49.142;9.118;2022-07-23T15:25:53;9.07;;;7.25;;
49061;SDS011;34873;49.142;9.118;2022-07-23T15:28:19;8.02;;;7.05;;
49061;SDS011;34873;49.142;9.118;2022-07-23T15:30:47;9.57;;;7.70;;
49061;SDS011;34873;49.142;9.118;2022-07-23T15:33:13;8.07;;;7.10;;
49061;SDS011;34873;49.142;9.118;2022-07-23T15:35:38;9.27;;;7.03;;
49061;SDS011;34873;49.142;9.118;2022-07-23T15:38:06;8.32;;;7.43;;
49061;SDS011;34873;49.142;9.118;2022-07-23T15:40:31;8.18;;;6.93;;
49061;SDS011;34873;49.142;9.118;2022-07-23T15:43:00;7.82;;;7.03;;
49061;SDS011;34873;49.142;9.118;2022-07-23T15:45:25;8.73;;;7.15;;
49061;SDS011;34873;49.142;9.118;2022-07-23T15:47:53;8.10;;;7.03;;
49061;SDS011;34873;49.142;9.118;2022-07-23T15:50:19;7.93;;;7.10;;
49061;SDS011;34873;49.142;9.118;2022-07-23T15:52:47;9.15;;;7.38;;
49061;SDS011;34873;49.142;9.118;2022-07-23T15:55:12;12.20;;;7.63;;
49061;SDS011;34873;49.142;9.118;2022-07-23T15:57:38;11.07;;;7.75;;
49061;SDS011;34873;49.142;9.118;2022-07-23T16:00:06;10.57;;;7.40;;
49061;SDS011;34873;49.142;9.118;2022-07-23T16:02:35;10.38;;;8.07;;